RNM weather

Ramona Airport
Ramona, California, United States

Public forecast

Using degrees Fahrenheit for public forecast. Weather courtesy of forecast.io.

METAR (pilot weather report)

Retrieved 2019/07/19 00:53 UTC (15 minutes ago):

KRNM 190053Z AUTO 28008KT 10SM CLR 26/14 A2993 RMK AO2 SLP121 T02610144

TAF (pilot weather forecast)

Forecast is more than 12 hours old.

Closest forecast is Miramar Marine Corps Air Station - Mitscher Field, 15.4 nm (28.5 km) SW. Retrieved 2014/11/27 15:09 UTC (5 years ago):

TAF COR KNKX 271500Z 2715/2815 VRB05KT 9999 SKC QNH3001INS BECMG 2806/2808 07007KT QNH2998INS TX30/2721Z TN14/2812Z COR 1520